Welcome to Trans World Virtual Airlines!

Welcome TWVA's Newest Pilot:

TWA2313 Bryan Heald

Not a Trans World pilot yet?
Apply Now!




Sign-in with your pilot id or email, or register

Flight TWA586

  • Submitted By: Austin Hill
  • Departure Airport: Kansas City International Airport (KMCI)
  • Arrival Airport: Chicago O'Hare International Airport (KORD)
  • Aircraft: MD-83 (N44266TW)
  • Flight Time: 01.42
  • Date Submitted: 02/23/2018
  • Route: RIS, IRK, COLIE, LOAMY, KEOKK, BDF, JOT, KORD
  • Status: Accepted
Flight Details
Gross Revenue:
(118 load / $ 95.00 per unit
$ 11, 210.00
Fuel Cost:
(12801 fuel used @ 0.8 / unit)
$ 10, 240.80

Additional Log Information:

View Log

FS[16:41] Aircraft Title - MD_83 Paint4
FS[16:41] Aircraft Model - MD83
FS[16:41] Flight Number TWA586
FS[16:41] Departure KMCI
FS[16:41] Destination KORD
FS[16:41] Boarding
FS[16:47] Pushing Back
FS[16:50] Taxiing to Runway
FS[16:55] Taking Off
FS[16:55] Taking Off
FS[16:55] 178kts
FS[16:55] pitch angle 13 degrees
FS[16:55] 24751 (lbs) of fuel onboard
FS[16:56] Climbing
FS[17:15] TOC Reached
FS[17:15] Cruise 35000
FS[17:30] TOD Reached
FS[17:30] Descending
FS[17:48] On Approach
FS[17:59] Landing Rate -47fpm
FS[17:59] 14524 (lbs) of fuel onboard
FS[17:59] pitch angle 6 degrees
FS[18:00] Taxiing to Gate
FS[18:13] Arrived
FS[18:19] Max Sim Rate: 1x
FS[18:19] kACARS_Free Version 1.0.1.1

Comments

Commenter Comment
Austin Hill KMCI 231640Z 31004KT P6SM OVC012 00/M04 A3029 // KORD 231735Z 17013G20KT 9SM 06/04 A3012

Route Map